| time (UTC) | temp F | wind direction | speed MPH | gust MPH | rain 1hr in | rain 24hr in | rain mn in | humidity % | barometer mb |
| 20260901005517 | 81 | 0.0 | 0.0 | 0.00 | 0.00 | 0.00 | 79 | 1017.0 | |
| 20260901004517 | 82 | 0.0 | 1.0 | 0.00 | 0.00 | 0.00 | 78 | 1016.8 | |
| 20260901003517 | 82 | 0.0 | 0.0 | 0.00 | 0.00 | 0.00 | 78 | 1016.8 | |
| 20260901002517 | 83 | 0.0 | 0.0 | 0.00 | 0.00 | 0.00 | 78 | 1016.9 | |
| 20260901001537 | 83 | 0.0 | 0.0 | 0.00 | 0.00 | 0.00 | 77 | 1017.0 | |
| 20260901000517 | 84 | 0.0 | 0.0 | 0.00 | 0.00 | 0.00 | 76 | 1016.9 | |
| 20260831235517 | 84 | 0.0 | 0.0 | 0.00 | 0.00 | 0.00 | 75 | 1017.0 | |
| 20260831234517 | 85 | 0.0 | 0.0 | 0.00 | 0.00 | 0.00 | 74 | 1017.0 | |
| 20260831233517 | 86 | 0.0 | 0.0 | 0.00 | 0.00 | 0.00 | 73 | 1017.1 | |
| 20260831232517 | 86 | 0.0 | 0.0 | 0.00 | 0.00 | 0.00 | 72 | 1017.0 | |
| 20260831231517 | 87 | 0.0 | 0.0 | 0.00 | 0.00 | 0.00 | 70 | 1017.3 | |
| 20260831230517 | 89 | 0.0 | 1.0 | 0.00 | 0.00 | 0.00 | 68 | 1017.4 | |
| 20260831225517 | 90 | 0.0 | 0.0 | 0.00 | 0.00 | 0.00 | 66 | 1017.4 | |
| 20260831224517 | 91 | 0.0 | 0.0 | 0.00 | 0.00 | 0.00 | 64 | 1017.5 | |
| 20260831223537 | 92 | 0.0 | 0.0 | 0.00 | 0.00 | 0.00 | 64 | 1017.4 | |
| 20260831222517 | 92 | 0.0 | 1.0 | 0.00 | 0.00 | 0.00 | 61 | 1017.4 | |
| 20260831221517 | 93 | 0.0 | 1.0 | 0.00 | 0.00 | 0.00 | 59 | 1017.6 | |
| 20260831220557 | 93 | 0.0 | 0.0 | 0.00 | 0.00 | 0.00 | 59 | 1017.5 | |
| 20260831215537 | 93 | 0.0 | 2.0 | 0.00 | 0.00 | 0.00 | 59 | 1017.5 | |
| 20260831214517 | 93 | 0.0 | 4.0 | 0.00 | 0.00 | 0.00 | 58 | 1017.6 | |
| 20260831213517 | 93 | 270 | 1.0 | 5.0 | 0.00 | 0.00 | 0.00 | 57 | 1017.7 |
| 20260831212537 | 93 | 0.0 | 2.0 | 0.00 | 0.00 | 0.00 | 58 | 1017.6 | |
| 20260831211517 | 93 | 0.0 | 4.0 | 0.00 | 0.00 | 0.00 | 55 | 1017.8 | |
| 20260831210517 | 93 | 0.0 | 1.0 | 0.00 | 0.00 | 0.00 | 57 | 1017.9 | |
| 20260831205537 | 92 | 248 | 1.0 | 4.0 | 0.00 | 0.00 | 0.00 | 56 | 1017.9 |
| 20260831204517 | 93 | 0.0 | 5.0 | 0.00 | 0.00 | 0.00 | 60 | 1017.9 | |
| 20260831203517 | 93 | 0.0 | 3.0 | 0.00 | 0.00 | 0.00 | 58 | 1018.0 | |
| 20260831202517 | 93 | 180 | 1.0 | 5.0 | 0.00 | 0.00 | 0.00 | 55 | 1018.1 |
| 20260831201537 | 92 | 248 | 1.0 | 8.0 | 0.00 | 0.00 | 0.00 | 55 | 1018.3 |
| 20260831200537 | 93 | 0.0 | 3.0 | 0.00 | 0.00 | 0.00 | 56 | 1018.5 | |
| 20260831195537 | 92 | 0.0 | 3.0 | 0.00 | 0.00 | 0.00 | 60 | 1018.6 | |
| 20260831194517 | 91 | 0.0 | 1.0 | 0.00 | 0.00 | 0.00 | 62 | 1018.7 | |
| 20260831193517 | 90 | 0.0 | 4.0 | 0.00 | 0.00 | 0.00 | 61 | 1018.8 | |
| 20260831192517 | 90 | 0.0 | 3.0 | 0.00 | 0.00 | 0.00 | 61 | 1019.0 | |
| 20260831191517 | 90 | 0.0 | 2.0 | 0.00 | 0.00 | 0.00 | 61 | 1019.1 | |
| 20260831190537 | 91 | 225 | 1.0 | 4.0 | 0.00 | 0.00 | 0.00 | 59 | 1019.2 |
| 20260831185517 | 91 | 0.0 | 5.0 | 0.00 | 0.00 | 0.00 | 60 | 1019.2 | |
| 20260831184517 | 91 | 293 | 1.0 | 5.0 | 0.00 | 0.00 | 0.00 | 60 | 1019.3 |
| 20260831183517 | 91 | 0.0 | 5.0 | 0.00 | 0.00 | 0.00 | 63 | 1019.4 | |
| 20260831182537 | 90 | 0.0 | 4.0 | 0.00 | 0.00 | 0.00 | 63 | 1019.4 | |
| 20260831181517 | 90 | 0.0 | 6.0 | 0.00 | 0.00 | 0.00 | 65 | 1019.5 | |
| 20260831180517 | 89 | 293 | 1.0 | 8.0 | 0.00 | 0.00 | 0.00 | 63 | 1019.5 |
| 20260831175517 | 90 | 293 | 1.0 | 8.0 | 0.00 | 0.00 | 0.00 | 63 | 1019.8 |
| 20260831173517 | 90 | 293 | 1.0 | 5.0 | 0.00 | 0.00 | 0.00 | 64 | 1019.8 |
| 20260831172517 | 89 | 270 | 3.0 | 10.0 | 0.00 | 0.00 | 0.00 | 64 | 1019.8 |
| 20260831171517 | 89 | 203 | 1.0 | 5.0 | 0.00 | 0.00 | 0.00 | 65 | 1019.8 |
| 20260831170517 | 89 | 293 | 1.0 | 7.0 | 0.00 | 0.00 | 0.00 | 66 | 1020.0 |
| 20260831165537 | 89 | 338 | 1.0 | 7.0 | 0.00 | 0.00 | 0.00 | 69 | 1020.1 |
| 20260831164517 | 88 | 293 | 1.0 | 5.0 | 0.00 | 0.00 | 0.00 | 69 | 1020.1 |
| 20260831163517 | 87 | 248 | 2.0 | 9.0 | 0.00 | 0.00 | 0.00 | 69 | 1020.2 |
| 20260831162517 | 87 | 225 | 3.0 | 11.0 | 0.00 | 0.00 | 0.00 | 69 | 1020.1 |
| 20260831161517 | 86 | 225 | 1.0 | 5.0 | 0.00 | 0.00 | 0.00 | 71 | 1020.1 |
| 20260831160517 | 86 | 225 | 1.0 | 7.0 | 0.00 | 0.00 | 0.00 | 73 | 1020.1 |
| 20260831155517 | 85 | 203 | 2.0 | 9.0 | 0.00 | 0.00 | 0.00 | 74 | 1020.1 |
| 20260831154517 | 85 | 270 | 1.0 | 7.0 | 0.00 | 0.00 | 0.00 | 74 | 1020.1 |
| 20260831153537 | 84 | 0.0 | 1.0 | 0.00 | 0.00 | 0.00 | 76 | 1020.2 | |
| 20260831152517 | 83 | 225 | 1.0 | 4.0 | 0.00 | 0.00 | 0.00 | 76 | 1020.1 |
| 20260831151517 | 83 | 0.0 | 4.0 | 0.00 | 0.00 | 0.00 | 77 | 1020.1 | |
| 20260831150517 | 82 | 293 | 1.0 | 4.0 | 0.00 | 0.00 | 0.00 | 79 | 1020.0 |
| 20260831145517 | 81 | 0.0 | 4.0 | 0.00 | 0.00 | 0.00 | 81 | 1019.9 | |
| 20260831144517 | 80 | 0.0 | 1.0 | 0.00 | 0.00 | 0.00 | 83 | 1019.8 | |
| 20260831143517 | 79 | 0.0 | 5.0 | 0.00 | 0.00 | 0.00 | 84 | 1019.8 | |
| 20260831142517 | 78 | 0.0 | 1.0 | 0.00 | 0.00 | 0.00 | 83 | 1019.6 | |
| 20260831141517 | 78 | 0.0 | 0.0 | 0.00 | 0.00 | 0.00 | 83 | 1019.6 | |
| 20260831140517 | 79 | 0.0 | 5.0 | 0.00 | 0.00 | 0.00 | 83 | 1019.7 | |
| 20260831135517 | 79 | 248 | 1.0 | 5.0 | 0.00 | 0.00 | 0.00 | 82 | 1019.6 |
| 20260831134517 | 79 | 248 | 1.0 | 4.0 | 0.00 | 0.00 | 0.00 | 83 | 1019.6 |
| 20260831133517 | 78 | 248 | 2.0 | 5.0 | 0.00 | 0.00 | 0.00 | 84 | 1019.7 |
| 20260831132517 | 76 | 203 | 1.0 | 7.0 | 0.00 | 0.00 | 0.00 | 87 | 1019.6 |
| 20260831131517 | 75 | 203 | 1.0 | 6.0 | 0.00 | 0.00 | 0.00 | 89 | 1019.4 |
| 20260831130517 | 73 | 0.0 | 3.0 | 0.00 | 0.00 | 0.00 | 90 | 1019.3 | |
| 20260831125517 | 73 | 0.0 | 3.0 | 0.00 | 0.00 | 0.00 | 91 | 1019.1 | |
| 20260831124517 | 72 | 0.0 | 0.0 | 0.00 | 0.00 | 0.00 | 91 | 1019.1 | |
| 20260831123517 | 72 | 0.0 | 0.0 | 0.00 | 0.00 | 0.00 | 91 | 1019.0 | |
| 20260831122517 | 72 | 0.0 | 0.0 | 0.00 | 0.00 | 0.00 | 91 | 1018.9 | |
| 20260831121517 | 72 | 0.0 | 0.0 | 0.00 | 0.00 | 0.00 | 91 | 1018.9 | |
| 20260831120517 | 71 | 0.0 | 0.0 | 0.00 | 0.00 | 0.00 | 91 | 1018.8 | |
| 20260831115517 | 71 | 0.0 | 1.0 | 0.00 | 0.00 | 0.00 | 90 | 1018.9 | |
| 20260831114557 | 71 | 0.0 | 0.0 | 0.00 | 0.00 | 0.00 | 90 | 1018.9 | |
| 20260831113537 | 71 | 0.0 | 0.0 | 0.00 | 0.00 | 0.00 | 90 | 1018.9 | |
| 20260831112517 | 71 | 0.0 | 0.0 | 0.00 | 0.00 | 0.00 | 90 | 1018.9 | |
| 20260831111537 | 71 | 0.0 | 0.0 | 0.00 | 0.00 | 0.00 | 90 | 1018.9 | |
| 20260831110517 | 72 | 0.0 | 0.0 | 0.00 | 0.00 | 0.00 | 89 | 1018.8 | |
| 20260831105517 | 72 | 0.0 | 0.0 | 0.00 | 0.00 | 0.00 | 89 | 1018.8 | |
| 20260831104517 | 72 | 0.0 | 0.0 | 0.00 | 0.00 | 0.00 | 88 | 1018.7 | |
| 20260831103517 | 72 | 0.0 | 0.0 | 0.00 | 0.00 | 0.00 | 88 | 1018.7 | |
| 20260831102517 | 73 | 0.0 | 0.0 | 0.00 | 0.00 | 0.00 | 88 | 1018.6 | |
| 20260831101517 | 73 | 0.0 | 0.0 | 0.00 | 0.00 | 0.00 | 87 | 1018.7 | |
| 20260831100517 | 73 | 0.0 | 0.0 | 0.00 | 0.00 | 0.00 | 86 | 1018.6 | |
| 20260831095537 | 73 | 0.0 | 0.0 | 0.00 | 0.00 | 0.00 | 85 | 1018.6 | |
| 20260831094517 | 73 | 0.0 | 0.0 | 0.00 | 0.00 | 0.00 | 85 | 1018.5 | |
| 20260831093517 | 74 | 0.0 | 0.0 | 0.00 | 0.00 | 0.00 | 85 | 1018.7 | |
| 20260831092517 | 74 | 0.0 | 0.0 | 0.00 | 0.00 | 0.00 | 84 | 1018.7 | |
| 20260831091517 | 74 | 0.0 | 0.0 | 0.00 | 0.00 | 0.00 | 84 | 1018.7 | |
| 20260831090517 | 74 | 0.0 | 0.0 | 0.00 | 0.00 | 0.00 | 84 | 1018.8 | |
| 20260831085537 | 74 | 0.0 | 0.0 | 0.00 | 0.00 | 0.00 | 84 | 1018.8 | |
| 20260831084517 | 74 | 0.0 | 0.0 | 0.00 | 0.00 | 0.00 | 84 | 1018.7 | |
| 20260831083537 | 74 | 0.0 | 0.0 | 0.00 | 0.00 | 0.00 | 84 | 1018.6 | |
| 20260831082517 | 74 | 0.0 | 0.0 | 0.00 | 0.00 | 0.00 | 84 | 1018.6 | |
| 20260831081517 | 74 | 0.0 | 0.0 | 0.00 | 0.00 | 0.00 | 84 | 1018.3 | |
| 20260831080517 | 74 | 0.0 | 0.0 | 0.00 | 0.00 | 0.00 | 84 | 1018.2 | |
| 20260831075517 | 74 | 0.0 | 0.0 | 0.00 | 0.00 | 0.00 | 85 | 1018.2 | |
| 20260831074517 | 74 | 0.0 | 3.0 | 0.00 | 0.00 | 0.00 | 84 | 1018.1 | |
| 20260831073537 | 74 | 0.0 | 3.0 | 0.00 | 0.00 | 0.00 | 84 | 1018.1 | |
| 20260831072517 | 74 | 0.0 | 0.0 | 0.00 | 0.00 | 0.00 | 85 | 1018.1 | |
| 20260831071517 | 73 | 0.0 | 0.0 | 0.00 | 0.00 | 0.00 | 86 | 1017.9 | |
| 20260831070517 | 73 | 0.0 | 0.0 | 0.00 | 0.00 | 0.00 | 87 | 1018.0 | |
| 20260831065517 | 73 | 0.0 | 2.0 | 0.00 | 0.00 | 0.00 | 88 | 1018.2 | |
| 20260831064517 | 73 | 0.0 | 0.0 | 0.00 | 0.00 | 0.00 | 88 | 1018.2 | |
| 20260831063517 | 73 | 0.0 | 0.0 | 0.00 | 0.00 | 0.00 | 88 | 1018.4 | |
| 20260831062517 | 73 | 0.0 | 0.0 | 0.00 | 0.00 | 0.00 | 88 | 1018.6 | |
| 20260831061517 | 74 | 0.0 | 0.0 | 0.00 | 0.00 | 0.00 | 88 | 1018.8 | |
| 20260831060537 | 74 | 0.0 | 0.0 | 0.00 | 0.00 | 0.00 | 87 | 1018.8 | |
| 20260831055517 | 74 | 0.0 | 0.0 | 0.00 | 0.00 | 0.00 | 87 | 1018.9 | |
| 20260831054517 | 74 | 0.0 | 0.0 | 0.00 | 0.00 | 0.00 | 87 | 1019.0 | |
| 20260831053517 | 74 | 0.0 | 0.0 | 0.00 | 0.00 | 0.00 | 86 | 1019.1 | |
| 20260831052537 | 74 | 0.0 | 0.0 | 0.00 | 0.00 | 0.00 | 86 | 1019.2 | |
| 20260831051517 | 74 | 0.0 | 0.0 | 0.00 | 0.00 | 0.00 | 86 | 1019.1 | |
| 20260831050517 | 74 | 0.0 | 0.0 | 0.00 | 0.00 | 0.00 | 87 | 1019.0 | |
| 20260831044517 | 74 | 0.0 | 0.0 | 0.00 | 0.00 | 0.00 | 87 | 1018.8 | |
| 20260831043517 | 74 | 0.0 | 0.0 | 0.00 | 0.00 | 0.00 | 86 | 1018.7 | |
| 20260831042517 | 74 | 0.0 | 0.0 | 0.00 | 0.00 | 0.00 | 86 | 1018.7 | |
| 20260831041517 | 74 | 0.0 | 0.0 | 0.00 | 0.00 | 0.00 | 87 | 1018.6 | |
| 20260831040517 | 74 | 0.0 | 0.0 | 0.00 | 0.00 | 0.00 | 87 | 1018.6 | |
| 20260831035537 | 74 | 0.0 | 0.0 | 0.00 | 0.00 | 0.00 | 87 | 1018.5 | |
| 20260831034517 | 74 | 0.0 | 0.0 | 0.00 | 0.00 | 0.00 | 87 | 1018.4 | |
| 20260831033517 | 74 | 0.0 | 0.0 | 0.00 | 0.00 | 0.00 | 87 | 1018.5 | |
| 20260831032537 | 74 | 0.0 | 0.0 | 0.00 | 0.00 | 0.00 | 87 | 1018.5 | |
| 20260831031517 | 74 | 0.0 | 0.0 | 0.00 | 0.00 | 0.00 | 86 | 1018.5 | |
| 20260831030517 | 74 | 0.0 | 0.0 | 0.00 | 0.00 | 0.00 | 85 | 1018.7 | |
| 20260831025517 | 74 | 0.0 | 0.0 | 0.00 | 0.00 | 0.00 | 85 | 1018.8 | |
| 20260831024517 | 74 | 0.0 | 0.0 | 0.00 | 0.00 | 0.00 | 84 | 1018.7 | |
| 20260831023517 | 75 | 0.0 | 0.0 | 0.00 | 0.00 | 0.00 | 84 | 1018.6 | |
| 20260831022517 | 75 | 0.0 | 0.0 | 0.00 | 0.00 | 0.00 | 83 | 1018.7 | |
| 20260831021517 | 75 | 0.0 | 0.0 | 0.00 | 0.00 | 0.00 | 83 | 1018.7 | |
| 20260831020517 | 75 | 0.0 | 0.0 | 0.00 | 0.00 | 0.00 | 82 | 1018.5 | |
| 20260831015517 | 75 | 0.0 | 0.0 | 0.00 | 0.00 | 0.00 | 82 | 1018.5 | |
| 20260831014517 | 75 | 0.0 | 0.0 | 0.00 | 0.00 | 0.00 | 82 | 1018.4 | |
| 20260831013517 | 76 | 0.0 | 0.0 | 0.00 | 0.00 | 0.00 | 82 | 1018.3 | |
| 20260831012517 | 76 | 0.0 | 0.0 | 0.00 | 0.00 | 0.00 | 82 | 1018.1 | |
| 20260831011517 | 76 | 0.0 | 0.0 | 0.00 | 0.00 | 0.00 | 81 | 1018.0 | |
| 20260831010537 | 76 | 0.0 | 0.0 | 0.00 | 0.00 | 0.00 | 81 | 1018.0 |